Time;durP1;ratioP1;P1;durP2;ratioP2;P2;SDS_P1;SDS_P2;PMS_P1;PMS_P2;Temp;Humidity;BMP_temperature;BMP_pressure;BME280_temperature;BME280_humidity;BME280_pressure;Samples;Min_cycle;Max_cycle;Signal;HPM_P1;HPM_P2
2022/10/15 00:01:43;;;;;;;64.17;42.93;;;;;;;;;;5075877;28;20283;-70
2022/10/15 00:04:09;;;;;;;62.83;41.20;;;;;;;;;;5076101;28;20417;-70
2022/10/15 00:06:35;;;;;;;60.93;41.70;;;;;;;;;;5076056;28;20280;-70
2022/10/15 00:09:02;;;;;;;62.50;41.83;;;;;;;;;;5075490;28;20286;-70
2022/10/15 00:11:28;;;;;;;62.77;41.60;;;;;;;;;;5057799;28;20275;-70
2022/10/15 00:13:55;;;;;;;61.03;43.40;;;;;;;;;;5057473;28;20718;-70
2022/10/15 00:16:23;;;;;;;56.07;41.07;;;;;;;;;;5075311;28;20295;-70
2022/10/15 00:18:50;;;;;;;66.20;45.60;;;;;;;;;;5075314;28;20685;-70
2022/10/15 00:21:17;;;;;;;55.67;41.67;;;;;;;;;;5057641;28;20325;-70
2022/10/15 00:23:44;;;;;;;66.33;45.87;;;;;;;;;;5075247;28;20763;-71
2022/10/15 00:26:11;;;;;;;57.63;40.77;;;;;;;;;;5075667;28;20353;-70
2022/10/15 00:28:38;;;;;;;62.67;42.50;;;;;;;;;;5074812;28;20369;-70
2022/10/15 00:31:05;;;;;;;53.00;39.70;;;;;;;;;;5074992;28;20322;-70
2022/10/15 00:33:32;;;;;;;62.27;41.67;;;;;;;;;;5075006;28;20290;-70
2022/10/15 00:36:02;;;;;;;63.23;43.60;;;;;;;;;;5075406;28;20314;-70
2022/10/15 00:38:28;;;;;;;57.63;40.67;;;;;;;;;;5057295;28;20286;-70
2022/10/15 00:40:55;;;;;;;57.60;41.37;;;;;;;;;;5057858;28;20290;-70
2022/10/15 00:43:36;;;;;;;62.67;42.23;;;;;;;;;;5075065;28;20830;-71
2022/10/15 00:46:02;;;;;;;62.77;41.07;;;;;;;;;;5074982;28;20287;-70
2022/10/15 00:48:30;;;;;;;56.53;40.37;;;;;;;;;;5075503;28;20290;-70
2022/10/15 00:50:56;;;;;;;67.20;43.70;;;;;;;;;;5074633;28;20282;-71
2022/10/15 00:53:22;;;;;;;58.47;41.57;;;;;;;;;;5074538;28;20283;-71
2022/10/15 00:55:50;;;;;;;58.33;40.00;;;;;;;;;;5074494;28;20307;-70
2022/10/15 00:58:26;;;;;;;71.20;46.10;;;;;;;;;;5057686;28;20297;-70
2022/10/15 01:00:53;;;;;;;62.90;42.50;;;;;;;;;;5075014;28;20618;-70
2022/10/15 01:03:19;;;;;;;56.27;41.60;;;;;;;;;;5057023;28;20677;-70
2022/10/15 01:05:47;;;;;;;53.50;38.97;;;;;;;;;;5056174;28;20305;-70
2022/10/15 01:08:13;;;;;;;57.80;41.40;;;;;;;;;;5074279;28;20283;-70
2022/10/15 01:10:50;;;;;;;61.97;42.43;;;;;;;;;;5074244;28;20313;-70
2022/10/15 01:13:28;;;;;;;60.67;40.80;;;;;;;;;;5074491;28;20306;-70
2022/10/15 01:15:57;;;;;;;60.70;43.70;;;;;;;;;;5074904;28;20298;-70
2022/10/15 01:18:31;;;;;;;57.03;40.87;;;;;;;;;;5074111;28;20290;-70
2022/10/15 01:20:58;;;;;;;63.20;42.63;;;;;;;;;;5074855;28;20350;-71
2022/10/15 01:23:27;;;;;;;59.87;41.20;;;;;;;;;;5074559;28;20063;-70
2022/10/15 01:26:16;;;;;;;65.87;43.17;;;;;;;;;;5073942;28;20279;-70
2022/10/15 01:28:48;;;;;;;67.73;43.10;;;;;;;;;;5027341;28;20800;-70
2022/10/15 01:31:14;;;;;;;54.93;40.20;;;;;;;;;;5056472;28;20301;-70
2022/10/15 01:33:40;;;;;;;59.80;41.23;;;;;;;;;;5074151;28;20668;-70
2022/10/15 01:36:16;;;;;;;61.13;40.20;;;;;;;;;;5074157;28;20295;-70
2022/10/15 01:38:46;;;;;;;55.47;40.67;;;;;;;;;;5073711;28;20282;-70
2022/10/15 01:41:20;;;;;;;54.67;40.70;;;;;;;;;;5073710;28;20763;-70
2022/10/15 01:43:58;;;;;;;58.43;41.07;;;;;;;;;;5073733;28;20340;-71
2022/10/15 01:46:29;;;;;;;52.27;39.70;;;;;;;;;;5073642;28;20263;-70
2022/10/15 01:48:55;;;;;;;61.53;41.50;;;;;;;;;;5055639;28;20286;-70
2022/10/15 01:51:23;;;;;;;63.53;42.90;;;;;;;;;;5073287;28;20811;-70
2022/10/15 01:53:50;;;;;;;63.17;40.80;;;;;;;;;;5055913;28;20292;-70
2022/10/15 01:56:20;;;;;;;64.40;42.80;;;;;;;;;;5055681;28;20301;-70
2022/10/15 01:58:47;;;;;;;49.43;37.63;;;;;;;;;;5073528;28;20285;-70
2022/10/15 02:01:13;;;;;;;56.50;41.00;;;;;;;;;;5073486;28;20283;-70
2022/10/15 02:03:46;;;;;;;61.33;41.60;;;;;;;;;;5056133;28;20305;-70
2022/10/15 02:06:14;;;;;;;59.23;39.90;;;;;;;;;;5073445;28;20738;-70
2022/10/15 02:08:53;;;;;;;64.13;41.47;;;;;;;;;;5073401;28;20369;-70
2022/10/15 02:11:19;;;;;;;63.33;41.50;;;;;;;;;;5073220;28;20842;-70
2022/10/15 02:13:55;;;;;;;57.83;40.13;;;;;;;;;;5056363;28;20287;-70
2022/10/15 02:16:23;;;;;;;68.33;43.13;;;;;;;;;;5073190;28;20620;-70
2022/10/15 02:19:02;;;;;;;66.87;39.77;;;;;;;;;;5073682;28;20287;-74
2022/10/15 02:21:31;;;;;;;53.53;36.97;;;;;;;;;;5073238;28;20679;-70
2022/10/15 02:24:03;;;;;;;54.63;34.43;;;;;;;;;;5055293;28;20286;-71
2022/10/15 02:26:30;;;;;;;54.77;36.13;;;;;;;;;;5073643;28;20279;-70
2022/10/15 02:28:58;;;;;;;53.37;35.37;;;;;;;;;;5072961;28;20298;-70
2022/10/15 02:31:26;;;;;;;59.27;36.40;;;;;;;;;;5072986;28;20296;-70
2022/10/15 02:33:55;;;;;;;54.10;34.93;;;;;;;;;;5072914;28;20274;-70
2022/10/15 02:36:21;;;;;;;53.50;33.63;;;;;;;;;;5072925;28;20334;-70
2022/10/15 02:38:48;;;;;;;56.20;36.97;;;;;;;;;;5073586;28;20619;-70
2022/10/15 02:41:15;;;;;;;54.07;35.70;;;;;;;;;;5073037;28;20311;-70
2022/10/15 02:43:41;;;;;;;60.60;39.43;;;;;;;;;;5072954;28;20777;-70
2022/10/15 02:46:09;;;;;;;57.73;39.00;;;;;;;;;;5055209;28;20730;-70
2022/10/15 02:48:35;;;;;;;59.93;37.73;;;;;;;;;;5072889;28;20286;-70
2022/10/15 02:51:01;;;;;;;67.97;43.67;;;;;;;;;;5073682;28;20394;-70
2022/10/15 02:53:27;;;;;;;63.93;40.20;;;;;;;;;;5073222;28;20279;-70
2022/10/15 02:55:53;;;;;;;60.80;40.10;;;;;;;;;;5072778;28;20302;-75
2022/10/15 02:58:19;;;;;;;57.53;39.07;;;;;;;;;;5073161;28;20311;-70
2022/10/15 03:00:46;;;;;;;53.10;37.37;;;;;;;;;;5072842;28;20290;-70
2022/10/15 03:03:12;;;;;;;54.90;36.40;;;;;;;;;;5072745;28;20373;-70
2022/10/15 03:05:38;;;;;;;59.03;38.97;;;;;;;;;;5073542;28;20615;-70
2022/10/15 03:08:04;;;;;;;50.77;35.87;;;;;;;;;;5073207;28;20275;-70
2022/10/15 03:10:30;;;;;;;54.37;37.27;;;;;;;;;;5073019;28;20333;-70
2022/10/15 03:13:01;;;;;;;52.97;34.53;;;;;;;;;;5054933;28;20279;-75
2022/10/15 03:15:27;;;;;;;51.27;35.50;;;;;;;;;;5054545;28;20305;-70
2022/10/15 03:17:53;;;;;;;56.13;36.87;;;;;;;;;;5072871;28;20310;-70
2022/10/15 03:20:19;;;;;;;53.03;36.80;;;;;;;;;;5072510;28;20275;-70
2022/10/15 03:22:45;;;;;;;52.50;36.30;;;;;;;;;;5072491;28;20746;-70
2022/10/15 03:25:11;;;;;;;55.43;38.23;;;;;;;;;;5072287;28;20619;-70
2022/10/15 03:27:37;;;;;;;52.50;36.90;;;;;;;;;;5073801;28;20290;-70
2022/10/15 03:30:03;;;;;;;53.73;38.10;;;;;;;;;;5058682;28;20792;-71
2022/10/15 03:32:30;;;;;;;51.53;37.23;;;;;;;;;;5076433;28;20286;-70
2022/10/15 03:34:56;;;;;;;59.43;38.57;;;;;;;;;;5076122;28;20377;-70
2022/10/15 03:37:22;;;;;;;62.20;39.90;;;;;;;;;;5076024;28;20283;-70
2022/10/15 03:39:48;;;;;;;57.87;37.67;;;;;;;;;;5076036;28;20281;-70
2022/10/15 03:42:14;;;;;;;62.30;38.60;;;;;;;;;;5075659;28;20775;-70
2022/10/15 03:44:40;;;;;;;63.40;38.27;;;;;;;;;;5075974;28;20348;-70
2022/10/15 03:47:06;;;;;;;65.13;40.50;;;;;;;;;;5075873;28;20279;-70
2022/10/15 03:49:32;;;;;;;62.70;38.73;;;;;;;;;;5058740;28;20281;-70
2022/10/15 03:51:58;;;;;;;59.30;38.20;;;;;;;;;;5075855;28;20282;-70
2022/10/15 03:54:25;;;;;;;60.70;38.90;;;;;;;;;;5057952;28;20274;-70
2022/10/15 03:56:51;;;;;;;69.97;43.27;;;;;;;;;;5057748;28;20349;-70
2022/10/15 03:59:17;;;;;;;57.77;38.07;;;;;;;;;;5057825;28;20286;-70
2022/10/15 04:01:43;;;;;;;68.43;40.93;;;;;;;;;;5058011;28;20336;-70
2022/10/15 04:04:12;;;;;;;71.63;44.33;;;;;;;;;;5075672;28;20283;-71
2022/10/15 04:06:39;;;;;;;71.70;44.83;;;;;;;;;;5075874;28;20271;-70
2022/10/15 04:09:05;;;;;;;69.73;43.37;;;;;;;;;;5075507;28;20279;-70
2022/10/15 04:11:31;;;;;;;67.70;43.23;;;;;;;;;;5076078;28;20381;-70
2022/10/15 04:13:57;;;;;;;73.27;42.87;;;;;;;;;;5075436;28;20365;-70
2022/10/15 04:16:23;;;;;;;81.20;44.37;;;;;;;;;;5075235;28;20291;-70
2022/10/15 04:18:49;;;;;;;77.27;42.27;;;;;;;;;;5075309;28;20289;-70
2022/10/15 04:21:15;;;;;;;71.73;43.57;;;;;;;;;;5075213;28;20279;-70
2022/10/15 04:23:41;;;;;;;69.13;42.10;;;;;;;;;;5075805;28;20330;-70
2022/10/15 04:26:07;;;;;;;65.10;41.10;;;;;;;;;;5075865;28;20308;-71
2022/10/15 04:28:33;;;;;;;71.20;43.90;;;;;;;;;;5075008;28;20370;-70
2022/10/15 04:31:00;;;;;;;72.37;43.37;;;;;;;;;;5075003;28;20319;-70
2022/10/15 04:33:26;;;;;;;62.57;41.03;;;;;;;;;;5075566;28;20354;-70
2022/10/15 04:36:03;;;;;;;67.63;41.67;;;;;;;;;;5040467;28;20697;-70
2022/10/15 04:38:29;;;;;;;69.17;40.80;;;;;;;;;;5056917;28;20369;-70
2022/10/15 04:41:00;;;;;;;74.10;42.47;;;;;;;;;;5074873;28;20282;-70
2022/10/15 04:43:27;;;;;;;72.50;43.93;;;;;;;;;;5074985;28;20275;-70
2022/10/15 04:45:55;;;;;;;69.20;41.87;;;;;;;;;;5074802;28;20279;-70
2022/10/15 04:48:21;;;;;;;69.53;41.90;;;;;;;;;;5075197;28;20293;-70
2022/10/15 04:50:47;;;;;;;79.50;44.57;;;;;;;;;;5074646;28;20275;-70
2022/10/15 04:53:13;;;;;;;66.43;41.23;;;;;;;;;;5074621;28;20309;-70
2022/10/15 04:55:39;;;;;;;73.67;42.93;;;;;;;;;;5074525;28;20382;-70
2022/10/15 04:58:05;;;;;;;73.23;43.83;;;;;;;;;;5057657;28;20606;-70
2022/10/15 05:00:31;;;;;;;75.30;45.03;;;;;;;;;;5074484;28;20278;-71
2022/10/15 05:02:57;;;;;;;69.57;43.17;;;;;;;;;;5074411;28;20286;-70
2022/10/15 05:05:23;;;;;;;83.80;46.80;;;;;;;;;;5074337;28;20286;-70
2022/10/15 05:07:49;;;;;;;72.50;43.57;;;;;;;;;;5074326;28;20305;-70
2022/10/15 05:10:15;;;;;;;62.93;41.47;;;;;;;;;;5074286;28;20286;-70
2022/10/15 05:12:41;;;;;;;74.13;44.73;;;;;;;;;;5074687;28;20622;-70
2022/10/15 05:15:08;;;;;;;76.60;45.13;;;;;;;;;;5056566;28;20295;-70
2022/10/15 05:17:34;;;;;;;66.33;41.53;;;;;;;;;;5074127;28;20771;-71
2022/10/15 05:20:00;;;;;;;80.73;46.63;;;;;;;;;;5074939;28;20275;-71
2022/10/15 05:22:26;;;;;;;77.47;45.17;;;;;;;;;;5074071;28;20337;-71
2022/10/15 05:24:53;;;;;;;79.53;49.47;;;;;;;;;;5056269;28;20326;-71
2022/10/15 05:27:19;;;;;;;69.10;44.97;;;;;;;;;;5056448;28;20662;-71
2022/10/15 05:29:45;;;;;;;70.97;45.67;;;;;;;;;;5073927;28;20287;-70
2022/10/15 05:32:11;;;;;;;75.33;47.17;;;;;;;;;;5073815;28;20336;-70
2022/10/15 05:34:37;;;;;;;69.77;46.03;;;;;;;;;;5073739;28;20290;-70
2022/10/15 05:37:03;;;;;;;83.57;50.47;;;;;;;;;;5073587;28;20303;-71
2022/10/15 05:39:29;;;;;;;75.50;47.37;;;;;;;;;;5073648;28;20336;-71
2022/10/15 05:41:55;;;;;;;101.17;55.70;;;;;;;;;;5073597;28;20283;-71
2022/10/15 05:44:21;;;;;;;90.70;51.13;;;;;;;;;;5039319;28;20289;-71
2022/10/15 05:46:47;;;;;;;82.53;49.80;;;;;;;;;;5074134;28;20699;-70
2022/10/15 05:49:13;;;;;;;82.93;48.43;;;;;;;;;;5073524;28;20314;-70
2022/10/15 05:51:39;;;;;;;71.63;47.70;;;;;;;;;;5073035;28;20279;-71
2022/10/15 05:54:05;;;;;;;83.90;53.33;;;;;;;;;;5074196;28;20428;-70
2022/10/15 05:56:31;;;;;;;77.50;50.63;;;;;;;;;;5074059;28;20306;-70
2022/10/15 05:58:57;;;;;;;91.90;53.60;;;;;;;;;;5073407;28;20290;-70
2022/10/15 06:01:23;;;;;;;89.50;55.33;;;;;;;;;;5055659;28;20318;-71
2022/10/15 06:03:49;;;;;;;77.23;50.53;;;;;;;;;;5073029;28;20790;-70
2022/10/15 06:06:19;;;;;;;89.57;53.10;;;;;;;;;;5073301;28;20661;-73
2022/10/15 06:08:45;;;;;;;85.50;50.40;;;;;;;;;;5073470;28;20774;-70
2022/10/15 06:11:11;;;;;;;91.63;53.27;;;;;;;;;;5072932;28;20767;-71
2022/10/15 06:13:38;;;;;;;90.77;54.30;;;;;;;;;;5074026;28;20285;-70
2022/10/15 06:16:04;;;;;;;89.30;54.00;;;;;;;;;;5073189;28;20381;-71
2022/10/15 06:18:30;;;;;;;103.73;60.07;;;;;;;;;;5073066;28;20293;-71
2022/10/15 06:20:56;;;;;;;88.67;53.63;;;;;;;;;;5073116;28;20315;-70
2022/10/15 06:23:23;;;;;;;97.43;56.53;;;;;;;;;;5073643;28;20307;-71
2022/10/15 06:25:50;;;;;;;99.57;55.60;;;;;;;;;;5073137;28;20283;-71
2022/10/15 06:28:16;;;;;;;84.63;49.87;;;;;;;;;;5072911;28;20286;-70
2022/10/15 06:30:42;;;;;;;98.23;57.10;;;;;;;;;;5073920;28;20722;-70
2022/10/15 06:33:08;;;;;;;100.10;57.33;;;;;;;;;;5055850;28;20283;-70
2022/10/15 06:35:35;;;;;;;93.37;56.17;;;;;;;;;;5073338;28;20298;-70
2022/10/15 06:38:04;;;;;;;84.83;53.43;;;;;;;;;;5073154;28;20283;-70
2022/10/15 06:40:31;;;;;;;94.03;56.73;;;;;;;;;;5073118;28;20356;-70
2022/10/15 06:43:04;;;;;;;94.73;57.50;;;;;;;;;;5073112;28;20313;-70
2022/10/15 06:45:30;;;;;;;102.10;57.07;;;;;;;;;;5055382;28;20836;-71
2022/10/15 06:47:56;;;;;;;107.63;60.30;;;;;;;;;;5055398;28;20311;-70
2022/10/15 06:50:22;;;;;;;93.37;55.03;;;;;;;;;;5073001;28;20291;-71
2022/10/15 06:52:48;;;;;;;106.10;58.10;;;;;;;;;;5073000;28;20315;-70
2022/10/15 06:55:14;;;;;;;90.83;54.20;;;;;;;;;;5038403;28;20306;-70
2022/10/15 06:57:40;;;;;;;102.77;60.13;;;;;;;;;;5072857;28;20328;-70
2022/10/15 07:00:07;;;;;;;85.63;53.80;;;;;;;;;;5073691;28;20278;-70
2022/10/15 07:02:35;;;;;;;95.97;54.90;;;;;;;;;;5073955;28;20290;-71
2022/10/15 07:05:01;;;;;;;89.23;55.00;;;;;;;;;;5076695;28;20318;-70
2022/10/15 07:07:27;;;;;;;100.57;58.17;;;;;;;;;;5076931;28;20310;-71
2022/10/15 07:09:54;;;;;;;105.33;60.73;;;;;;;;;;5077129;28;20404;-70
2022/10/15 07:12:21;;;;;;;93.23;56.17;;;;;;;;;;5076561;28;20279;-70
2022/10/15 07:14:48;;;;;;;98.90;57.33;;;;;;;;;;5076668;28;20283;-70
2022/10/15 07:17:14;;;;;;;88.10;53.17;;;;;;;;;;5058554;28;20285;-70
2022/10/15 07:19:40;;;;;;;94.37;56.60;;;;;;;;;;5058709;28;20297;-70
2022/10/15 07:22:06;;;;;;;102.57;59.50;;;;;;;;;;5059193;28;20293;-70
2022/10/15 07:24:32;;;;;;;94.80;54.97;;;;;;;;;;5076248;28;20283;-70
2022/10/15 07:26:58;;;;;;;108.87;59.23;;;;;;;;;;5077019;28;20306;-70
2022/10/15 07:29:24;;;;;;;93.50;56.87;;;;;;;;;;5076369;28;20310;-70
2022/10/15 07:31:51;;;;;;;103.63;60.13;;;;;;;;;;5076251;28;20373;-70
2022/10/15 07:34:17;;;;;;;95.50;57.20;;;;;;;;;;5076231;28;20350;-70
2022/10/15 07:36:43;;;;;;;98.13;59.03;;;;;;;;;;5076085;28;20302;-70
2022/10/15 07:39:09;;;;;;;115.17;62.93;;;;;;;;;;5076171;28;20283;-70
2022/10/15 07:41:35;;;;;;;89.57;53.50;;;;;;;;;;5058050;28;20283;-70
2022/10/15 07:44:02;;;;;;;98.30;56.70;;;;;;;;;;5076151;28;20278;-70
2022/10/15 07:46:28;;;;;;;93.07;54.37;;;;;;;;;;5076597;28;20318;-75
2022/10/15 07:48:54;;;;;;;97.90;58.27;;;;;;;;;;5076038;28;20313;-70
2022/10/15 07:51:20;;;;;;;104.40;57.07;;;;;;;;;;5058382;28;20295;-71
2022/10/15 07:53:46;;;;;;;119.17;60.97;;;;;;;;;;5075936;28;20314;-70
2022/10/15 07:56:13;;;;;;;110.73;57.53;;;;;;;;;;5041458;28;20299;-70
2022/10/15 07:58:40;;;;;;;109.30;58.83;;;;;;;;;;5075863;28;20322;-70
2022/10/15 08:01:07;;;;;;;103.10;56.50;;;;;;;;;;5076338;28;20665;-70
2022/10/15 08:03:33;;;;;;;97.77;58.13;;;;;;;;;;5076111;28;20279;-70
2022/10/15 08:06:00;;;;;;;105.93;59.97;;;;;;;;;;5075612;28;20275;-70
2022/10/15 08:08:26;;;;;;;111.30;58.53;;;;;;;;;;5058214;28;20623;-70
2022/10/15 08:10:53;;;;;;;98.40;57.23;;;;;;;;;;5057938;28;20298;-71
2022/10/15 08:13:19;;;;;;;104.23;58.30;;;;;;;;;;5075133;28;20694;-70
2022/10/15 08:15:45;;;;;;;102.43;59.67;;;;;;;;;;5075385;28;20291;-70
2022/10/15 08:18:11;;;;;;;85.13;52.63;;;;;;;;;;5075356;28;20313;-70
2022/10/15 08:20:37;;;;;;;87.30;53.10;;;;;;;;;;5075575;28;20307;-71
2022/10/15 08:23:03;;;;;;;109.37;57.87;;;;;;;;;;5075298;28;20319;-71
2022/10/15 08:25:31;;;;;;;102.27;58.73;;;;;;;;;;5075279;28;20279;-70
2022/10/15 08:27:57;;;;;;;96.50;55.47;;;;;;;;;;5075621;28;20317;-72
2022/10/15 08:30:23;;;;;;;97.90;54.87;;;;;;;;;;5075821;28;20275;-70
2022/10/15 08:32:49;;;;;;;98.37;54.23;;;;;;;;;;5075572;28;20317;-71
2022/10/15 08:35:15;;;;;;;106.70;56.70;;;;;;;;;;5057185;28;20306;-70
2022/10/15 08:37:41;;;;;;;91.07;52.73;;;;;;;;;;5057360;28;20291;-71
2022/10/15 08:40:09;;;;;;;93.93;54.27;;;;;;;;;;5075753;28;20373;-71
2022/10/15 08:42:41;;;;;;;99.83;53.90;;;;;;;;;;5075436;28;20622;-72
2022/10/15 08:45:23;;;;;;;88.10;51.23;;;;;;;;;;5057099;28;20369;-71
2022/10/15 08:47:57;;;;;;;100.20;54.47;;;;;;;;;;5074644;28;20282;-71
2022/10/15 08:50:37;;;;;;;100.90;54.67;;;;;;;;;;5075158;28;20619;-71
2022/10/15 08:53:03;;;;;;;76.93;49.60;;;;;;;;;;5074594;28;20278;-71
2022/10/15 08:55:34;;;;;;;86.47;50.47;;;;;;;;;;5074513;28;20342;-70
2022/10/15 08:58:06;;;;;;;80.37;48.87;;;;;;;;;;5074614;28;20286;-71
2022/10/15 09:00:32;;;;;;;80.40;49.37;;;;;;;;;;5074580;28;20290;-71
2022/10/15 09:03:01;;;;;;;80.47;49.37;;;;;;;;;;5074398;28;20281;-70
2022/10/15 09:05:43;;;;;;;75.87;48.47;;;;;;;;;;5075243;28;20282;-72
2022/10/15 09:08:12;;;;;;;78.73;49.27;;;;;;;;;;5074303;28;20352;-70
2022/10/15 09:10:43;;;;;;;69.23;45.10;;;;;;;;;;5074259;28;20485;-71
2022/10/15 09:13:25;;;;;;;64.40;42.63;;;;;;;;;;5056675;28;20279;-70
2022/10/15 09:15:53;;;;;;;72.60;46.77;;;;;;;;;;5074063;28;20440;-70
2022/10/15 09:18:23;;;;;;;73.40;48.33;;;;;;;;;;5074407;28;20302;-70
2022/10/15 09:20:50;;;;;;;75.30;45.37;;;;;;;;;;5074078;28;20275;-70
2022/10/15 09:23:18;;;;;;;72.10;46.50;;;;;;;;;;5074101;28;20667;-70
2022/10/15 09:25:47;;;;;;;67.73;44.50;;;;;;;;;;5073305;28;20282;-69
2022/10/15 09:28:15;;;;;;;71.83;45.20;;;;;;;;;;5074513;28;20338;-69
2022/10/15 09:30:42;;;;;;;69.10;42.40;;;;;;;;;;5073717;28;20771;-69
2022/10/15 09:33:27;;;;;;;68.70;42.57;;;;;;;;;;5073991;28;20370;-69
2022/10/15 09:35:55;;;;;;;69.63;44.27;;;;;;;;;;5073835;28;20299;-70
2022/10/15 09:38:40;;;;;;;66.80;43.13;;;;;;;;;;5073925;28;20275;-72
2022/10/15 09:41:06;;;;;;;68.55;44.75;;;;;;;;;;5073815;28;20366;-70
2022/10/15 09:43:35;;;;;;;63.83;43.67;;;;;;;;;;5073769;28;20049;-70
2022/10/15 09:46:02;;;;;;;64.10;42.57;;;;;;;;;;5073627;28;20279;-73
2022/10/15 09:48:31;;;;;;;59.67;40.97;;;;;;;;;;5073650;28;20758;-71
2022/10/15 09:51:12;;;;;;;55.60;38.20;;;;;;;;;;5074005;28;20271;-70
2022/10/15 09:54:01;;;;;;;46.73;31.70;;;;;;;;;;5073869;28;20628;-69
2022/10/15 09:56:38;;;;;;;46.13;31.10;;;;;;;;;;5073542;28;20335;-70
2022/10/15 09:59:04;;;;;;;43.10;30.43;;;;;;;;;;5073503;28;20314;-69
2022/10/15 10:01:32;;;;;;;48.33;30.33;;;;;;;;;;5073528;28;20314;-70
2022/10/15 10:04:17;;;;;;;44.60;28.77;;;;;;;;;;5073427;28;20366;-70
2022/10/15 10:06:53;;;;;;;42.95;29.45;;;;;;;;;;5073724;28;20336;-70
2022/10/15 10:09:25;;;;;;;43.40;30.10;;;;;;;;;;5073816;28;20041;-69
2022/10/15 10:11:52;;;;;;;45.13;29.63;;;;;;;;;;5073980;28;20624;-70
2022/10/15 10:14:22;;;;;;;46.93;30.87;;;;;;;;;;5073053;28;20303;-70
2022/10/15 10:17:14;;;;;;;43.30;30.57;;;;;;;;;;5073291;28;20302;-71
2022/10/15 10:19:40;;;;;;;43.23;28.17;;;;;;;;;;5073962;28;20278;-70
2022/10/15 10:22:13;;;;;;;42.30;29.87;;;;;;;;;;5073281;28;20131;-70
2022/10/15 10:24:39;;;;;;;37.97;27.80;;;;;;;;;;5073631;28;20271;-70
2022/10/15 10:27:16;;;;;;;38.97;26.67;;;;;;;;;;5073316;28;20051;-70
2022/10/15 10:29:47;;;;;;;35.47;25.43;;;;;;;;;;5073150;28;20052;-69
2022/10/15 10:32:22;;;;;;;37.73;25.97;;;;;;;;;;5073533;28;20289;-69
2022/10/15 10:34:48;;;;;;;34.10;24.38;;;;;;;;;;5073863;28;20119;-70
2022/10/15 10:37:14;;;;;;;31.60;23.83;;;;;;;;;;5075421;28;20052;-69
2022/10/15 10:39:43;;;;;;;33.10;24.07;;;;;;;;;;5077319;28;20055;-69
2022/10/15 10:42:15;;;;;;;30.90;23.33;;;;;;;;;;5077235;28;20279;-70
2022/10/15 10:44:45;;;;;;;27.53;21.90;;;;;;;;;;5077233;28;20127;-70
2022/10/15 10:47:11;;;;;;;29.57;21.73;;;;;;;;;;5077452;28;20091;-70
2022/10/15 10:49:40;;;;;;;27.90;20.80;;;;;;;;;;5077081;28;20097;-69
2022/10/15 10:52:17;;;;;;;26.47;20.67;;;;;;;;;;5076955;28;20282;-70
2022/10/15 10:54:44;;;;;;;28.77;19.67;;;;;;;;;;5077030;28;20052;-70
2022/10/15 10:57:11;;;;;;;25.73;19.27;;;;;;;;;;5076836;28;20131;-71
2022/10/15 10:59:42;;;;;;;27.60;19.97;;;;;;;;;;5076938;28;20055;-69
2022/10/15 11:02:10;;;;;;;28.37;20.30;;;;;;;;;;5077375;28;20044;-70
2022/10/15 11:04:38;;;;;;;27.53;18.67;;;;;;;;;;5076510;28;20516;-67
2022/10/15 11:07:04;;;;;;;26.10;20.13;;;;;;;;;;5076701;28;20051;-71
2022/10/15 11:09:33;;;;;;;24.73;18.27;;;;;;;;;;5076677;28;20432;-70
2022/10/15 11:12:17;;;;;;;21.37;16.60;;;;;;;;;;5076587;28;20047;-69
2022/10/15 11:15:02;;;;;;;24.90;17.53;;;;;;;;;;5076276;28;20446;-69
2022/10/15 11:17:34;;;;;;;21.27;17.48;;;;;;;;;;5076552;28;20090;-70
2022/10/15 11:20:14;;;;;;;21.07;16.50;;;;;;;;;;5076414;28;20060;-70
2022/10/15 11:22:52;;;;;;;20.70;17.53;;;;;;;;;;5076495;28;20083;-71
2022/10/15 11:25:22;;;;;;;18.60;15.57;;;;;;;;;;5076446;28;20045;-69
2022/10/15 11:28:09;;;;;;;19.03;15.77;;;;;;;;;;5076682;28;20041;-70
2022/10/15 11:30:42;;;;;;;18.90;15.93;;;;;;;;;;5056477;28;20131;-70
2022/10/15 11:33:14;;;;;;;21.03;15.17;;;;;;;;;;5056511;28;20071;-70
2022/10/15 11:35:49;;;;;;;18.90;14.80;;;;;;;;;;5056150;28;20080;-70
2022/10/15 11:38:20;;;;;;;19.47;14.97;;;;;;;;;;5056200;28;20049;-70
2022/10/15 11:41:10;;;;;;;18.07;15.13;;;;;;;;;;5056143;28;20045;-70
2022/10/15 11:43:55;;;;;;;16.10;13.33;;;;;;;;;;5030355;28;20053;-70
2022/10/15 11:46:33;;;;;;;17.27;13.07;;;;;;;;;;5055997;28;20084;-70
2022/10/15 11:48:59;;;;;;;16.93;13.37;;;;;;;;;;5055407;28;20049;-70
2022/10/15 11:51:44;;;;;;;15.37;13.63;;;;;;;;;;5055898;28;20088;-70
2022/10/15 11:54:19;;;;;;;17.08;13.52;;;;;;;;;;5055756;28;20531;-70
2022/10/15 11:56:48;;;;;;;16.47;13.53;;;;;;;;;;5055715;28;20041;-70
2022/10/15 11:59:19;;;;;;;15.40;13.07;;;;;;;;;;5055728;28;20087;-70
2022/10/15 12:01:48;;;;;;;15.17;13.00;;;;;;;;;;5055591;28;20505;-70
2022/10/15 12:04:17;;;;;;;14.87;12.77;;;;;;;;;;5037953;28;20048;-70
2022/10/15 12:06:47;;;;;;;14.10;12.33;;;;;;;;;;5055472;28;20044;-70
2022/10/15 12:09:20;;;;;;;14.63;13.13;;;;;;;;;;5055668;28;20041;-70
2022/10/15 12:12:00;;;;;;;14.77;13.17;;;;;;;;;;5038326;28;20398;-70
2022/10/15 12:14:45;;;;;;;14.40;12.40;;;;;;;;;;5056318;28;20182;-70
2022/10/15 12:17:25;;;;;;;16.70;13.43;;;;;;;;;;5055421;28;20041;-70
2022/10/15 12:19:54;;;;;;;16.37;13.53;;;;;;;;;;5055645;28;20128;-70
2022/10/15 12:22:59;;;;;;;14.27;12.67;;;;;;;;;;5055320;28;20087;-70
2022/10/15 12:25:33;;;;;;;15.73;13.10;;;;;;;;;;4961626;28;20050;-70
2022/10/15 12:28:02;;;;;;;14.50;12.88;;;;;;;;;;4961797;28;20097;-69
2022/10/15 12:30:36;;;;;;;16.20;13.27;;;;;;;;;;5019178;28;20049;-70
2022/10/15 12:33:22;;;;;;;14.65;12.73;;;;;;;;;;5055696;28;20051;-70
2022/10/15 12:35:56;;;;;;;15.50;13.80;;;;;;;;;;5055067;28;20056;-70
2022/10/15 12:38:32;;;;;;;15.33;13.73;;;;;;;;;;5054958;28;20080;-70
2022/10/15 12:41:01;;;;;;;15.97;13.97;;;;;;;;;;5054885;28;20491;-70
2022/10/15 12:43:27;;;;;;;17.43;14.13;;;;;;;;;;5054936;28;20128;-70
2022/10/15 12:45:55;;;;;;;17.37;14.30;;;;;;;;;;5054924;28;20049;-70
2022/10/15 12:48:38;;;;;;;20.20;15.50;;;;;;;;;;5054758;28;20052;-70
2022/10/15 12:51:23;;;;;;;16.47;14.67;;;;;;;;;;5055553;28;20056;-70
2022/10/15 12:53:50;;;;;;;19.73;15.73;;;;;;;;;;5054720;28;20049;-70
2022/10/15 12:56:16;;;;;;;19.43;14.80;;;;;;;;;;5054566;28;20720;-70
2022/10/15 12:58:55;;;;;;;19.53;15.93;;;;;;;;;;5055103;28;20099;-70
2022/10/15 13:01:21;;;;;;;20.27;15.53;;;;;;;;;;5036737;28;20049;-70
2022/10/15 13:03:50;;;;;;;18.70;15.63;;;;;;;;;;5055012;28;20045;-70
2022/10/15 13:06:22;;;;;;;17.13;15.10;;;;;;;;;;5054416;28;20606;-69
2022/10/15 13:08:48;;;;;;;19.60;15.57;;;;;;;;;;5036942;28;20115;-69
2022/10/15 13:11:25;;;;;;;19.67;15.20;;;;;;;;;;5054327;28;20488;-69
2022/10/15 13:13:53;;;;;;;24.73;17.60;;;;;;;;;;5055110;28;20135;-68
2022/10/15 13:16:20;;;;;;;19.43;15.23;;;;;;;;;;5036738;28;20074;-69
2022/10/15 13:18:51;;;;;;;18.47;14.23;;;;;;;;;;5054315;28;20511;-69
2022/10/15 13:21:17;;;;;;;16.80;13.30;;;;;;;;;;5054172;28;20045;-69
2022/10/15 13:23:50;;;;;;;17.87;14.57;;;;;;;;;;5054085;28;20481;-69
2022/10/15 13:26:21;;;;;;;17.10;13.33;;;;;;;;;;5054098;28;20052;-69
2022/10/15 13:28:48;;;;;;;18.57;13.43;;;;;;;;;;5059564;28;20435;-69
2022/10/15 13:31:23;;;;;;;18.67;13.67;;;;;;;;;;5056378;28;20410;-69
2022/10/15 13:33:51;;;;;;;21.42;14.68;;;;;;;;;;5074284;28;20118;-69
2022/10/15 13:36:34;;;;;;;18.37;13.80;;;;;;;;;;5073820;28;20094;-70
2022/10/15 13:39:04;;;;;;;17.63;13.13;;;;;;;;;;5073814;28;20041;-69
2022/10/15 13:41:34;;;;;;;18.33;13.33;;;;;;;;;;5074020;28;20507;-69
2022/10/15 13:44:01;;;;;;;15.00;13.00;;;;;;;;;;5055822;28;20153;-69
2022/10/15 13:46:31;;;;;;;17.00;13.23;;;;;;;;;;5055844;28;20400;-69
2022/10/15 13:49:02;;;;;;;16.73;12.93;;;;;;;;;;5074243;28;20049;-69
2022/10/15 13:51:32;;;;;;;18.87;13.43;;;;;;;;;;5073665;28;20084;-69
2022/10/15 13:53:59;;;;;;;15.27;11.77;;;;;;;;;;5073640;28;20044;-69
2022/10/15 13:56:29;;;;;;;17.43;13.63;;;;;;;;;;5073852;28;20041;-69
2022/10/15 13:58:56;;;;;;;17.70;13.93;;;;;;;;;;5073769;28;20048;-69
2022/10/15 14:01:23;;;;;;;16.70;13.00;;;;;;;;;;5073766;28;20044;-69
2022/10/15 14:03:53;;;;;;;15.93;12.73;;;;;;;;;;5073520;28;20140;-69
2022/10/15 14:06:20;;;;;;;14.60;11.87;;;;;;;;;;5056469;28;20419;-69
2022/10/15 14:08:47;;;;;;;16.40;12.30;;;;;;;;;;5074069;28;20051;-69
2022/10/15 14:11:13;;;;;;;14.47;11.90;;;;;;;;;;5072994;28;20044;-69
2022/10/15 14:13:44;;;;;;;16.67;12.47;;;;;;;;;;5039616;28;20044;-69
2022/10/15 14:16:10;;;;;;;14.90;11.87;;;;;;;;;;5073346;28;20047;-68
2022/10/15 14:18:37;;;;;;;15.60;12.90;;;;;;;;;;5073383;28;20044;-69
2022/10/15 14:21:10;;;;;;;13.47;10.47;;;;;;;;;;5074174;28;20044;-69
2022/10/15 14:23:36;;;;;;;14.67;12.17;;;;;;;;;;5073893;28;20056;-69
2022/10/15 14:26:03;;;;;;;16.37;11.60;;;;;;;;;;5073828;28;20072;-69
2022/10/15 14:28:30;;;;;;;14.77;10.87;;;;;;;;;;5073360;28;20135;-69